sensor_id;sensor_type;location;lat;lon;timestamp;pressure;altitude;pressure_sealevel;temperature;humidity
38900;BME280;24660;43.238;26.576;2022-09-02T00:03:36;99171.22;;;21.79;100.00
38900;BME280;24660;43.238;26.576;2022-09-02T00:06:02;99171.59;;;21.70;100.00
38900;BME280;24660;43.238;26.576;2022-09-02T00:08:28;99171.47;;;21.84;100.00
38900;BME280;24660;43.238;26.576;2022-09-02T00:10:56;99169.72;;;21.77;100.00
38900;BME280;24660;43.238;26.576;2022-09-02T00:13:22;99170.56;;;21.77;100.00
38900;BME280;24660;43.238;26.576;2022-09-02T00:15:48;99170.97;;;21.74;100.00
38900;BME280;24660;43.238;26.576;2022-09-02T00:18:15;99183.19;;;21.85;100.00
38900;BME280;24660;43.238;26.576;2022-09-02T00:20:43;99165.50;;;21.68;100.00
38900;BME280;24660;43.238;26.576;2022-09-02T00:23:10;99178.66;;;21.64;100.00
38900;BME280;24660;43.238;26.576;2022-09-02T00:25:37;99182.56;;;21.48;100.00
38900;BME280;24660;43.238;26.576;2022-09-02T00:28:04;99188.22;;;21.47;100.00
38900;BME280;24660;43.238;26.576;2022-09-02T00:30:30;99177.13;;;21.48;100.00
38900;BME280;24660;43.238;26.576;2022-09-02T00:32:58;99182.25;;;21.30;100.00
38900;BME280;24660;43.238;26.576;2022-09-02T00:35:24;99169.50;;;21.30;100.00
38900;BME280;24660;43.238;26.576;2022-09-02T00:37:50;99182.50;;;21.35;100.00
38900;BME280;24660;43.238;26.576;2022-09-02T00:40:15;99181.28;;;21.44;100.00
38900;BME280;24660;43.238;26.576;2022-09-02T00:42:42;99168.06;;;21.34;100.00
38900;BME280;24660;43.238;26.576;2022-09-02T00:45:09;99173.06;;;21.31;100.00
38900;BME280;24660;43.238;26.576;2022-09-02T00:47:35;99176.72;;;21.23;100.00
38900;BME280;24660;43.238;26.576;2022-09-02T00:50:05;99184.78;;;21.10;100.00
38900;BME280;24660;43.238;26.576;2022-09-02T00:52:36;99180.97;;;21.26;100.00
38900;BME280;24660;43.238;26.576;2022-09-02T00:55:12;99181.03;;;21.11;100.00
38900;BME280;24660;43.238;26.576;2022-09-02T00:57:43;99189.19;;;21.11;100.00
38900;BME280;24660;43.238;26.576;2022-09-02T01:00:15;99187.34;;;21.12;100.00
38900;BME280;24660;43.238;26.576;2022-09-02T01:02:47;99187.03;;;21.00;100.00
38900;BME280;24660;43.238;26.576;2022-09-02T01:05:14;99184.78;;;21.10;100.00
38900;BME280;24660;43.238;26.576;2022-09-02T01:07:42;99176.28;;;21.20;100.00
38900;BME280;24660;43.238;26.576;2022-09-02T01:10:14;99174.72;;;21.04;100.00
38900;BME280;24660;43.238;26.576;2022-09-02T01:12:41;99179.13;;;21.05;100.00
38900;BME280;24660;43.238;26.576;2022-09-02T01:15:08;99173.69;;;21.05;100.00
38900;BME280;24660;43.238;26.576;2022-09-02T01:17:35;99174.19;;;21.15;100.00
38900;BME280;24660;43.238;26.576;2022-09-02T01:20:08;99170.81;;;21.13;100.00
38900;BME280;24660;43.238;26.576;2022-09-02T01:22:37;99161.66;;;21.21;100.00
38900;BME280;24660;43.238;26.576;2022-09-02T01:25:10;99164.16;;;21.44;100.00
38900;BME280;24660;43.238;26.576;2022-09-02T01:27:36;99151.66;;;21.56;100.00
38900;BME280;24660;43.238;26.576;2022-09-02T01:30:08;99149.03;;;21.34;100.00
38900;BME280;24660;43.238;26.576;2022-09-02T01:32:34;99156.53;;;21.32;100.00
38900;BME280;24660;43.238;26.576;2022-09-02T01:34:59;99164.44;;;21.62;100.00
38900;BME280;24660;43.238;26.576;2022-09-02T01:37:25;99153.72;;;21.19;100.00
38900;BME280;24660;43.238;26.576;2022-09-02T01:39:51;99158.19;;;21.27;100.00
38900;BME280;24660;43.238;26.576;2022-09-02T01:42:18;99153.91;;;21.18;100.00
38900;BME280;24660;43.238;26.576;2022-09-02T01:44:44;99154.94;;;21.17;100.00
38900;BME280;24660;43.238;26.576;2022-09-02T01:47:11;99157.47;;;21.18;100.00
38900;BME280;24660;43.238;26.576;2022-09-02T01:49:37;99158.19;;;20.99;100.00
38900;BME280;24660;43.238;26.576;2022-09-02T01:52:04;99150.66;;;21.01;100.00
38900;BME280;24660;43.238;26.576;2022-09-02T01:54:30;99153.47;;;21.14;100.00
38900;BME280;24660;43.238;26.576;2022-09-02T01:56:55;99151.09;;;21.26;100.00
38900;BME280;24660;43.238;26.576;2022-09-02T01:59:21;99142.84;;;21.19;100.00
38900;BME280;24660;43.238;26.576;2022-09-02T02:01:46;99147.34;;;21.33;100.00
38900;BME280;24660;43.238;26.576;2022-09-02T02:04:12;99144.81;;;21.32;100.00
38900;BME280;24660;43.238;26.576;2022-09-02T02:06:40;99152.44;;;21.15;100.00
38900;BME280;24660;43.238;26.576;2022-09-02T02:09:07;99140.66;;;21.08;100.00
38900;BME280;24660;43.238;26.576;2022-09-02T02:11:33;99151.59;;;21.15;100.00
38900;BME280;24660;43.238;26.576;2022-09-02T02:13:58;99145.03;;;21.30;100.00
38900;BME280;24660;43.238;26.576;2022-09-02T02:16:24;99141.59;;;21.22;100.00
38900;BME280;24660;43.238;26.576;2022-09-02T02:18:49;99146.59;;;21.18;100.00
38900;BME280;24660;43.238;26.576;2022-09-02T02:21:15;99139.63;;;21.09;100.00
38900;BME280;24660;43.238;26.576;2022-09-02T02:23:40;99152.47;;;20.94;100.00
38900;BME280;24660;43.238;26.576;2022-09-02T02:26:06;99157.91;;;20.94;100.00
38900;BME280;24660;43.238;26.576;2022-09-02T02:28:33;99155.06;;;20.74;100.00
38900;BME280;24660;43.238;26.576;2022-09-02T02:30:58;99152.94;;;20.69;100.00
38900;BME280;24660;43.238;26.576;2022-09-02T02:33:25;99149.78;;;20.44;100.00
38900;BME280;24660;43.238;26.576;2022-09-02T02:35:54;99163.88;;;20.40;100.00
38900;BME280;24660;43.238;26.576;2022-09-02T02:38:20;99159.75;;;20.23;100.00
38900;BME280;24660;43.238;26.576;2022-09-02T02:40:45;99167.97;;;20.29;100.00
38900;BME280;24660;43.238;26.576;2022-09-02T02:43:11;99167.34;;;20.27;100.00
38900;BME280;24660;43.238;26.576;2022-09-02T02:45:36;99166.75;;;20.32;100.00
38900;BME280;24660;43.238;26.576;2022-09-02T02:48:03;99178.22;;;20.12;100.00
38900;BME280;24660;43.238;26.576;2022-09-02T02:50:28;99186.78;;;19.95;100.00
38900;BME280;24660;43.238;26.576;2022-09-02T02:52:54;99190.97;;;19.97;100.00
38900;BME280;24660;43.238;26.576;2022-09-02T02:55:20;99183.19;;;20.09;100.00
38900;BME280;24660;43.238;26.576;2022-09-02T02:57:47;99199.41;;;20.02;100.00
38900;BME280;24660;43.238;26.576;2022-09-02T03:00:14;99200.66;;;19.85;100.00
38900;BME280;24660;43.238;26.576;2022-09-02T03:02:40;99200.28;;;19.73;100.00
38900;BME280;24660;43.238;26.576;2022-09-02T03:05:06;99208.13;;;19.68;100.00
38900;BME280;24660;43.238;26.576;2022-09-02T03:07:33;99214.06;;;19.57;100.00
38900;BME280;24660;43.238;26.576;2022-09-02T03:09:58;99211.03;;;19.67;100.00
38900;BME280;24660;43.238;26.576;2022-09-02T03:12:23;99213.00;;;19.73;100.00
38900;BME280;24660;43.238;26.576;2022-09-02T03:14:49;99206.00;;;19.64;100.00
38900;BME280;24660;43.238;26.576;2022-09-02T03:17:15;99208.78;;;19.55;100.00
38900;BME280;24660;43.238;26.576;2022-09-02T03:19:40;99216.75;;;19.57;100.00
38900;BME280;24660;43.238;26.576;2022-09-02T03:22:08;99215.41;;;19.38;100.00
38900;BME280;24660;43.238;26.576;2022-09-02T03:24:36;99213.06;;;19.50;100.00
38900;BME280;24660;43.238;26.576;2022-09-02T03:27:01;99212.16;;;19.43;100.00
38900;BME280;24660;43.238;26.576;2022-09-02T03:29:27;99205.41;;;19.39;100.00
38900;BME280;24660;43.238;26.576;2022-09-02T03:31:52;99202.59;;;19.32;100.00
38900;BME280;24660;43.238;26.576;2022-09-02T03:34:17;99198.88;;;19.33;100.00
38900;BME280;24660;43.238;26.576;2022-09-02T03:36:43;99202.59;;;19.47;100.00
38900;BME280;24660;43.238;26.576;2022-09-02T03:39:11;99205.59;;;19.37;100.00
38900;BME280;24660;43.238;26.576;2022-09-02T03:41:37;99213.03;;;19.58;100.00
38900;BME280;24660;43.238;26.576;2022-09-02T03:44:05;99210.56;;;19.48;100.00
38900;BME280;24660;43.238;26.576;2022-09-02T03:46:30;99216.63;;;19.50;100.00
38900;BME280;24660;43.238;26.576;2022-09-02T03:48:56;99212.81;;;19.45;100.00
38900;BME280;24660;43.238;26.576;2022-09-02T03:51:21;99216.25;;;19.39;100.00
38900;BME280;24660;43.238;26.576;2022-09-02T03:53:47;99212.22;;;19.35;100.00
38900;BME280;24660;43.238;26.576;2022-09-02T03:56:13;99215.69;;;19.28;100.00
38900;BME280;24660;43.238;26.576;2022-09-02T03:58:39;99212.88;;;19.37;100.00
38900;BME280;24660;43.238;26.576;2022-09-02T04:01:05;99210.34;;;19.50;100.00
38900;BME280;24660;43.238;26.576;2022-09-02T04:03:30;99209.34;;;19.66;100.00
38900;BME280;24660;43.238;26.576;2022-09-02T04:05:56;99200.75;;;19.47;100.00
38900;BME280;24660;43.238;26.576;2022-09-02T04:08:21;99209.66;;;19.71;100.00
38900;BME280;24660;43.238;26.576;2022-09-02T04:10:47;99211.03;;;19.67;100.00
38900;BME280;24660;43.238;26.576;2022-09-02T04:13:12;99215.41;;;19.53;100.00
38900;BME280;24660;43.238;26.576;2022-09-02T04:15:38;99218.50;;;19.50;100.00
38900;BME280;24660;43.238;26.576;2022-09-02T04:18:06;99216.25;;;19.39;100.00
38900;BME280;24660;43.238;26.576;2022-09-02T04:20:32;99216.66;;;19.65;100.00
38900;BME280;24660;43.238;26.576;2022-09-02T04:22:57;99214.88;;;19.72;100.00
38900;BME280;24660;43.238;26.576;2022-09-02T04:25:23;99214.88;;;19.87;100.00
38900;BME280;24660;43.238;26.576;2022-09-02T04:27:48;99219.81;;;19.69;100.00
38900;BME280;24660;43.238;26.576;2022-09-02T04:30:13;99220.13;;;20.10;100.00
38900;BME280;24660;43.238;26.576;2022-09-02T04:32:41;99213.38;;;20.21;100.00
38900;BME280;24660;43.238;26.576;2022-09-02T04:35:06;99212.69;;;19.97;100.00
38900;BME280;24660;43.238;26.576;2022-09-02T04:37:32;99213.44;;;19.91;100.00
38900;BME280;24660;43.238;26.576;2022-09-02T04:39:58;99225.81;;;19.79;100.00
38900;BME280;24660;43.238;26.576;2022-09-02T04:42:23;99225.91;;;20.22;100.00
38900;BME280;24660;43.238;26.576;2022-09-02T04:44:49;99206.59;;;20.46;100.00
38900;BME280;24660;43.238;26.576;2022-09-02T04:47:15;99211.91;;;20.75;100.00
38900;BME280;24660;43.238;26.576;2022-09-02T04:49:41;99208.94;;;20.34;100.00
38900;BME280;24660;43.238;26.576;2022-09-02T04:52:07;99214.72;;;20.89;100.00
38900;BME280;24660;43.238;26.576;2022-09-02T04:54:32;99210.69;;;21.06;100.00
38900;BME280;24660;43.238;26.576;2022-09-02T04:56:58;99210.09;;;21.11;100.00
38900;BME280;24660;43.238;26.576;2022-09-02T04:59:23;99210.81;;;21.47;100.00
38900;BME280;24660;43.238;26.576;2022-09-02T05:01:48;99204.31;;;21.89;100.00
38900;BME280;24660;43.238;26.576;2022-09-02T05:04:14;99210.78;;;21.41;100.00
38900;BME280;24660;43.238;26.576;2022-09-02T05:06:39;99210.91;;;21.67;100.00
38900;BME280;24660;43.238;26.576;2022-09-02T05:09:05;99217.66;;;22.12;100.00
38900;BME280;24660;43.238;26.576;2022-09-02T05:11:33;99205.00;;;22.52;100.00
38900;BME280;24660;43.238;26.576;2022-09-02T05:14:00;99207.28;;;22.56;100.00
38900;BME280;24660;43.238;26.576;2022-09-02T05:16:28;99197.22;;;22.63;100.00
38900;BME280;24660;43.238;26.576;2022-09-02T05:18:53;99192.66;;;23.29;97.51
38900;BME280;24660;43.238;26.576;2022-09-02T05:21:20;99203.31;;;23.71;95.10
38900;BME280;24660;43.238;26.576;2022-09-02T05:23:47;99193.34;;;23.89;95.16
38900;BME280;24660;43.238;26.576;2022-09-02T05:26:12;99195.59;;;23.15;96.35
38900;BME280;24660;43.238;26.576;2022-09-02T05:28:38;99193.75;;;23.08;96.25
38900;BME280;24660;43.238;26.576;2022-09-02T05:31:05;99191.59;;;23.30;97.21
38900;BME280;24660;43.238;26.576;2022-09-02T05:33:32;99192.84;;;23.34;94.36
38900;BME280;24660;43.238;26.576;2022-09-02T05:35:57;99194.53;;;23.42;89.88
38900;BME280;24660;43.238;26.576;2022-09-02T05:38:23;99186.78;;;23.26;89.57
38900;BME280;24660;43.238;26.576;2022-09-02T05:40:49;99192.44;;;23.37;91.01
38900;BME280;24660;43.238;26.576;2022-09-02T05:43:14;99192.59;;;23.69;89.47
38900;BME280;24660;43.238;26.576;2022-09-02T05:45:40;99193.63;;;23.75;87.04
38900;BME280;24660;43.238;26.576;2022-09-02T05:48:05;99195.72;;;23.73;85.88
38900;BME280;24660;43.238;26.576;2022-09-02T05:50:50;99202.06;;;23.66;86.09
38900;BME280;24660;43.238;26.576;2022-09-02T05:53:15;99196.16;;;23.56;83.89
38900;BME280;24660;43.238;26.576;2022-09-02T05:55:41;99198.91;;;23.50;85.06
38900;BME280;24660;43.238;26.576;2022-09-02T05:58:06;99198.50;;;23.59;87.09
38900;BME280;24660;43.238;26.576;2022-09-02T06:00:32;99195.34;;;23.69;83.86
38900;BME280;24660;43.238;26.576;2022-09-02T06:02:57;99192.81;;;23.54;84.79
38900;BME280;24660;43.238;26.576;2022-09-02T06:05:22;99192.81;;;23.48;85.08
38900;BME280;24660;43.238;26.576;2022-09-02T06:07:48;99198.75;;;23.25;86.42
38900;BME280;24660;43.238;26.576;2022-09-02T06:10:13;99199.13;;;23.68;83.85
38900;BME280;24660;43.238;26.576;2022-09-02T06:12:39;99197.88;;;23.57;83.33
38900;BME280;24660;43.238;26.576;2022-09-02T06:15:06;99193.44;;;23.50;83.77
38900;BME280;24660;43.238;26.576;2022-09-02T06:17:31;99194.72;;;23.60;82.72
38900;BME280;24660;43.238;26.576;2022-09-02T06:19:56;99199.59;;;24.03;81.55
38900;BME280;24660;43.238;26.576;2022-09-02T06:22:22;99199.28;;;23.80;81.93
38900;BME280;24660;43.238;26.576;2022-09-02T06:24:47;99188.88;;;23.30;82.94
38900;BME280;24660;43.238;26.576;2022-09-02T06:27:12;99192.44;;;23.37;85.06
38900;BME280;24660;43.238;26.576;2022-09-02T06:29:38;99198.53;;;24.11;82.22
38900;BME280;24660;43.238;26.576;2022-09-02T06:32:03;99204.06;;;23.91;79.62
38900;BME280;24660;43.238;26.576;2022-09-02T06:34:28;99201.66;;;24.14;80.42
38900;BME280;24660;43.238;26.576;2022-09-02T06:36:54;99212.75;;;23.68;80.93
38900;BME280;24660;43.238;26.576;2022-09-02T06:39:21;99210.00;;;23.75;81.22
38900;BME280;24660;43.238;26.576;2022-09-02T06:41:47;99207.31;;;23.55;80.89
38900;BME280;24660;43.238;26.576;2022-09-02T06:44:13;99210.47;;;23.65;82.60
38900;BME280;24660;43.238;26.576;2022-09-02T06:46:41;99204.34;;;23.56;81.69
38900;BME280;24660;43.238;26.576;2022-09-02T06:49:07;99216.97;;;23.51;82.11
38900;BME280;24660;43.238;26.576;2022-09-02T06:51:35;99208.31;;;23.80;81.74
38900;BME280;24660;43.238;26.576;2022-09-02T06:54:02;99216.38;;;24.13;80.03
38900;BME280;24660;43.238;26.576;2022-09-02T06:56:28;99211.06;;;24.18;79.64
38900;BME280;24660;43.238;26.576;2022-09-02T06:58:53;99210.22;;;24.31;79.90
38900;BME280;24660;43.238;26.576;2022-09-02T07:01:24;99204.44;;;24.01;79.84
38900;BME280;24660;43.238;26.576;2022-09-02T07:03:49;99203.91;;;24.31;79.61
38900;BME280;24660;43.238;26.576;2022-09-02T07:06:40;99206.56;;;23.99;80.30
38900;BME280;24660;43.238;26.576;2022-09-02T07:09:06;99211.06;;;24.63;78.89
38900;BME280;24660;43.238;26.576;2022-09-02T07:11:32;99200.78;;;24.58;77.93
38900;BME280;24660;43.238;26.576;2022-09-02T07:13:57;99220.41;;;24.80;77.42
38900;BME280;24660;43.238;26.576;2022-09-02T07:16:27;99224.38;;;24.53;77.81
38900;BME280;24660;43.238;26.576;2022-09-02T07:18:53;99219.97;;;24.52;78.40
38900;BME280;24660;43.238;26.576;2022-09-02T07:21:18;99219.06;;;24.90;77.19
38900;BME280;24660;43.238;26.576;2022-09-02T07:23:43;99218.44;;;25.19;76.08
38900;BME280;24660;43.238;26.576;2022-09-02T07:26:11;99206.63;;;25.25;75.41
38900;BME280;24660;43.238;26.576;2022-09-02T07:28:36;99214.25;;;24.92;76.64
38900;BME280;24660;43.238;26.576;2022-09-02T07:31:02;99210.44;;;24.61;77.73
38900;BME280;24660;43.238;26.576;2022-09-02T07:33:31;99215.25;;;24.97;76.98
38900;BME280;24660;43.238;26.576;2022-09-02T07:35:56;99213.25;;;25.36;75.84
38900;BME280;24660;43.238;26.576;2022-09-02T07:38:21;99205.22;;;25.59;75.25
38900;BME280;24660;43.238;26.576;2022-09-02T07:40:46;99213.47;;;25.34;74.64
38900;BME280;24660;43.238;26.576;2022-09-02T07:43:13;99214.25;;;25.41;76.12
38900;BME280;24660;43.238;26.576;2022-09-02T07:45:38;99206.22;;;25.65;75.37
38900;BME280;24660;43.238;26.576;2022-09-02T07:48:04;99209.59;;;25.85;74.58
38900;BME280;24660;43.238;26.576;2022-09-02T07:50:32;99203.66;;;25.88;74.11
38900;BME280;24660;43.238;26.576;2022-09-02T07:52:57;99207.84;;;25.72;75.00
38900;BME280;24660;43.238;26.576;2022-09-02T07:55:23;99216.06;;;25.48;76.69
38900;BME280;24660;43.238;26.576;2022-09-02T07:57:49;99214.56;;;25.77;75.23
38900;BME280;24660;43.238;26.576;2022-09-02T08:00:19;99207.59;;;25.74;74.89
38900;BME280;24660;43.238;26.576;2022-09-02T08:02:45;99222.97;;;25.75;76.28
38900;BME280;24660;43.238;26.576;2022-09-02T08:05:10;99213.38;;;25.66;75.26
38900;BME280;24660;43.238;26.576;2022-09-02T08:07:36;99213.25;;;25.79;75.61
38900;BME280;24660;43.238;26.576;2022-09-02T08:10:02;99216.84;;;25.55;74.84
38900;BME280;24660;43.238;26.576;2022-09-02T08:12:28;99219.91;;;25.65;74.89
38900;BME280;24660;43.238;26.576;2022-09-02T08:14:53;99213.66;;;25.58;75.95
38900;BME280;24660;43.238;26.576;2022-09-02T08:17:22;99210.19;;;25.26;76.46
38900;BME280;24660;43.238;26.576;2022-09-02T08:19:48;99216.13;;;25.41;75.90
38900;BME280;24660;43.238;26.576;2022-09-02T08:22:13;99223.28;;;25.85;75.33
38900;BME280;24660;43.238;26.576;2022-09-02T08:24:39;99220.00;;;25.95;74.37
38900;BME280;24660;43.238;26.576;2022-09-02T08:27:04;99221.91;;;26.13;73.39
38900;BME280;24660;43.238;26.576;2022-09-02T08:29:29;99216.78;;;26.65;70.46
38900;BME280;24660;43.238;26.576;2022-09-02T08:31:55;99220.88;;;26.44;71.37
38900;BME280;24660;43.238;26.576;2022-09-02T08:34:21;99217.41;;;26.37;72.18
38900;BME280;24660;43.238;26.576;2022-09-02T08:36:46;99210.03;;;26.37;72.12
38900;BME280;24660;43.238;26.576;2022-09-02T08:39:12;99211.53;;;26.63;70.96
38900;BME280;24660;43.238;26.576;2022-09-02T08:44:21;99208.22;;;26.61;70.86
38900;BME280;24660;43.238;26.576;2022-09-02T08:46:48;99206.22;;;26.20;70.58
38900;BME280;24660;43.238;26.576;2022-09-02T08:49:17;99207.94;;;26.32;71.03
38900;BME280;24660;43.238;26.576;2022-09-02T08:51:48;99203.97;;;26.28;71.71
38900;BME280;24660;43.238;26.576;2022-09-02T08:54:29;99209.19;;;26.37;70.63
38900;BME280;24660;43.238;26.576;2022-09-02T08:56:56;99202.28;;;26.76;68.73
38900;BME280;24660;43.238;26.576;2022-09-02T08:59:23;99200.22;;;26.71;69.30
38900;BME280;24660;43.238;26.576;2022-09-02T09:07:19;99193.78;;;27.31;66.71
38900;BME280;24660;43.238;26.576;2022-09-02T09:09:53;99184.72;;;27.18;66.24
38900;BME280;24660;43.238;26.576;2022-09-02T09:14:48;99169.34;;;26.64;69.30
38900;BME280;24660;43.238;26.576;2022-09-02T09:17:27;99175.19;;;27.21;67.53
38900;BME280;24660;43.238;26.576;2022-09-02T09:19:55;99169.59;;;26.62;68.36
38900;BME280;24660;43.238;26.576;2022-09-02T09:22:26;99158.41;;;26.87;68.43
38900;BME280;24660;43.238;26.576;2022-09-02T09:24:54;99155.59;;;27.64;67.28
38900;BME280;24660;43.238;26.576;2022-09-02T09:27:21;99155.25;;;27.26;67.44
38900;BME280;24660;43.238;26.576;2022-09-02T09:29:47;99150.34;;;27.39;64.77
38900;BME280;24660;43.238;26.576;2022-09-02T09:32:21;99145.75;;;26.86;67.38
38900;BME280;24660;43.238;26.576;2022-09-02T09:34:58;99144.63;;;27.06;66.92
38900;BME280;24660;43.238;26.576;2022-09-02T09:42:56;99143.84;;;27.80;65.16
38900;BME280;24660;43.238;26.576;2022-09-02T09:45:26;99131.25;;;28.25;62.48
38900;BME280;24660;43.238;26.576;2022-09-02T09:50:32;99123.16;;;28.18;62.38
38900;BME280;24660;43.238;26.576;2022-09-02T09:55:49;99126.06;;;28.57;61.15
38900;BME280;24660;43.238;26.576;2022-09-02T09:58:15;99123.25;;;28.85;61.01
38900;BME280;24660;43.238;26.576;2022-09-02T10:00:41;99119.38;;;29.15;57.60
38900;BME280;24660;43.238;26.576;2022-09-02T10:03:06;99119.91;;;28.83;58.34
38900;BME280;24660;43.238;26.576;2022-09-02T10:07:59;99101.19;;;28.97;57.83
38900;BME280;24660;43.238;26.576;2022-09-02T10:10:25;99110.25;;;28.47;59.49
38900;BME280;24660;43.238;26.576;2022-09-02T10:12:52;99097.97;;;28.38;58.79
38900;BME280;24660;43.238;26.576;2022-09-02T10:15:23;99093.44;;;28.77;59.55
38900;BME280;24660;43.238;26.576;2022-09-02T10:30:38;99066.59;;;29.01;56.12
38900;BME280;24660;43.238;26.576;2022-09-02T10:33:12;99061.47;;;29.10;56.52
38900;BME280;24660;43.238;26.576;2022-09-02T10:35:42;99070.66;;;29.37;56.14
38900;BME280;24660;43.238;26.576;2022-09-02T10:40:52;99054.97;;;28.99;55.61
38900;BME280;24660;43.238;26.576;2022-09-02T10:46:04;99046.50;;;29.01;58.83
38900;BME280;24660;43.238;26.576;2022-09-02T10:48:42;99047.00;;;29.58;56.68
38900;BME280;24660;43.238;26.576;2022-09-02T10:51:17;99047.47;;;29.33;56.50
38900;BME280;24660;43.238;26.576;2022-09-02T10:56:13;99061.69;;;28.07;61.61
38900;BME280;24660;43.238;26.576;2022-09-02T10:58:49;99060.59;;;27.40;65.73
38900;BME280;24660;43.238;26.576;2022-09-02T11:01:22;99044.75;;;26.95;67.31
38900;BME280;24660;43.238;26.576;2022-09-02T11:06:31;99038.81;;;26.75;70.68
38900;BME280;24660;43.238;26.576;2022-09-02T11:09:02;99044.53;;;26.73;70.92
38900;BME280;24660;43.238;26.576;2022-09-02T11:11:32;99036.53;;;26.95;68.74
38900;BME280;24660;43.238;26.576;2022-09-02T11:16:32;99032.47;;;26.74;69.38
38900;BME280;24660;43.238;26.576;2022-09-02T11:24:07;99047.66;;;26.23;66.92
38900;BME280;24660;43.238;26.576;2022-09-02T11:26:36;99047.56;;;26.30;65.77
38900;BME280;24660;43.238;26.576;2022-09-02T11:31:32;99046.44;;;26.73;64.60
38900;BME280;24660;43.238;26.576;2022-09-02T11:36:39;99050.97;;;27.14;64.76
38900;BME280;24660;43.238;26.576;2022-09-02T11:39:07;99045.22;;;27.15;65.04
38900;BME280;24660;43.238;26.576;2022-09-02T11:41:39;99042.09;;;27.35;64.95
38900;BME280;24660;43.238;26.576;2022-09-02T11:46:48;99040.81;;;27.78;63.20
38900;BME280;24660;43.238;26.576;2022-09-02T11:52:02;99038.88;;;28.07;61.37
38900;BME280;24660;43.238;26.576;2022-09-02T11:54:37;99037.63;;;27.86;62.56
38900;BME280;24660;43.238;26.576;2022-09-02T11:57:04;99030.69;;;28.12;62.23
38900;BME280;24660;43.238;26.576;2022-09-02T12:02:11;99039.09;;;28.51;59.85
38900;BME280;24660;43.238;26.576;2022-09-02T12:04:36;99035.25;;;28.52;59.72
38900;BME280;24660;43.238;26.576;2022-09-02T12:17:31;99018.47;;;27.34;63.00
38900;BME280;24660;43.238;26.576;2022-09-02T12:20:01;99012.41;;;27.32;62.76
38900;BME280;24660;43.238;26.576;2022-09-02T12:22:30;99005.91;;;27.50;61.96
38900;BME280;24660;43.238;26.576;2022-09-02T12:24:57;98997.44;;;27.40;62.08
38900;BME280;24660;43.238;26.576;2022-09-02T12:27:24;98993.88;;;27.39;61.90
38900;BME280;24660;43.238;26.576;2022-09-02T12:29:50;98997.97;;;27.94;60.85
38900;BME280;24660;43.238;26.576;2022-09-02T12:35:06;98990.31;;;27.27;63.21
38900;BME280;24660;43.238;26.576;2022-09-02T12:40:13;98994.31;;;27.19;63.65
38900;BME280;24660;43.238;26.576;2022-09-02T12:42:41;98996.91;;;27.26;63.82
38900;BME280;24660;43.238;26.576;2022-09-02T12:45:14;98995.97;;;27.20;64.23
38900;BME280;24660;43.238;26.576;2022-09-02T12:47:51;99001.34;;;27.15;63.51
38900;BME280;24660;43.238;26.576;2022-09-02T12:50:24;99007.63;;;27.28;64.06
38900;BME280;24660;43.238;26.576;2022-09-02T12:52:50;99008.41;;;27.51;63.82
38900;BME280;24660;43.238;26.576;2022-09-02T12:55:25;99014.38;;;27.48;63.90
38900;BME280;24660;43.238;26.576;2022-09-02T12:57:53;99013.44;;;27.43;64.30
38900;BME280;24660;43.238;26.576;2022-09-02T13:03:04;99012.78;;;27.24;66.33
38900;BME280;24660;43.238;26.576;2022-09-02T13:08:06;99023.81;;;27.41;64.96
38900;BME280;24660;43.238;26.576;2022-09-02T13:31:38;98999.56;;;27.49;61.70
38900;BME280;24660;43.238;26.576;2022-09-02T13:34:05;99012.06;;;27.57;62.06
38900;BME280;24660;43.238;26.576;2022-09-02T13:36:35;99006.94;;;27.61;61.51
38900;BME280;24660;43.238;26.576;2022-09-02T13:39:08;99007.31;;;27.12;62.22
38900;BME280;24660;43.238;26.576;2022-09-02T13:41:34;99007.50;;;27.34;61.84
38900;BME280;24660;43.238;26.576;2022-09-02T13:44:04;98991.41;;;27.26;62.85
38900;BME280;24660;43.238;26.576;2022-09-02T13:46:29;98992.00;;;27.28;62.07
38900;BME280;24660;43.238;26.576;2022-09-02T13:48:55;98983.06;;;27.33;62.22
38900;BME280;24660;43.238;26.576;2022-09-02T13:51:20;98972.91;;;27.62;63.46
38900;BME280;24660;43.238;26.576;2022-09-02T13:53:46;98972.22;;;27.83;62.12
38900;BME280;24660;43.238;26.576;2022-09-02T13:56:15;98982.19;;;27.72;60.91
38900;BME280;24660;43.238;26.576;2022-09-02T13:58:43;98965.16;;;27.87;61.00
38900;BME280;24660;43.238;26.576;2022-09-02T14:01:19;98982.59;;;28.26;61.04
38900;BME280;24660;43.238;26.576;2022-09-02T14:03:45;98983.09;;;28.40;59.41
38900;BME280;24660;43.238;26.576;2022-09-02T14:06:12;98983.78;;;28.47;59.32
38900;BME280;24660;43.238;26.576;2022-09-02T14:08:39;98981.34;;;28.17;60.88
38900;BME280;24660;43.238;26.576;2022-09-02T14:11:04;98989.63;;;28.34;60.78
38900;BME280;24660;43.238;26.576;2022-09-02T14:13:30;98997.59;;;28.35;60.78
38900;BME280;24660;43.238;26.576;2022-09-02T14:16:22;99003.41;;;28.22;61.19
38900;BME280;24660;43.238;26.576;2022-09-02T14:19:01;99015.75;;;27.63;64.42
38900;BME280;24660;43.238;26.576;2022-09-02T14:21:26;99006.56;;;27.29;64.83
38900;BME280;24660;43.238;26.576;2022-09-02T14:23:51;99011.00;;;26.95;63.86
38900;BME280;24660;43.238;26.576;2022-09-02T14:26:25;99013.41;;;26.68;64.25
38900;BME280;24660;43.238;26.576;2022-09-02T14:28:52;99021.59;;;26.32;66.14
38900;BME280;24660;43.238;26.576;2022-09-02T14:31:27;99004.84;;;25.99;69.37
38900;BME280;24660;43.238;26.576;2022-09-02T14:33:55;99006.63;;;25.93;70.62
38900;BME280;24660;43.238;26.576;2022-09-02T14:36:33;99005.41;;;25.89;72.47
38900;BME280;24660;43.238;26.576;2022-09-02T14:41:44;99010.34;;;25.69;76.20